sensor_id;sensor_type;location;lat;lon;timestamp;temperature;humidity
68922;DHT22;55959;51.244;5.724;2023-04-03T00:00:51;6.80;64.10
68922;DHT22;55959;51.244;5.724;2023-04-03T00:03:18;6.80;64.10
68922;DHT22;55959;51.244;5.724;2023-04-03T00:05:45;6.80;64.20
68922;DHT22;55959;51.244;5.724;2023-04-03T00:08:11;6.70;64.20
68922;DHT22;55959;51.244;5.724;2023-04-03T00:10:37;6.70;64.20
68922;DHT22;55959;51.244;5.724;2023-04-03T00:13:04;6.70;64.30
68922;DHT22;55959;51.244;5.724;2023-04-03T00:15:31;6.70;64.30
68922;DHT22;55959;51.244;5.724;2023-04-03T00:17:57;6.70;64.40
68922;DHT22;55959;51.244;5.724;2023-04-03T00:20:24;6.60;64.40
68922;DHT22;55959;51.244;5.724;2023-04-03T00:22:50;6.60;64.50
68922;DHT22;55959;51.244;5.724;2023-04-03T00:25:15;6.60;64.50
68922;DHT22;55959;51.244;5.724;2023-04-03T00:27:41;6.60;64.50
68922;DHT22;55959;51.244;5.724;2023-04-03T00:30:10;6.50;64.50
68922;DHT22;55959;51.244;5.724;2023-04-03T00:32:40;6.50;64.60
68922;DHT22;55959;51.244;5.724;2023-04-03T00:35:07;6.50;64.70
68922;DHT22;55959;51.244;5.724;2023-04-03T00:37:33;6.50;64.60
68922;DHT22;55959;51.244;5.724;2023-04-03T00:39:58;6.40;64.70
68922;DHT22;55959;51.244;5.724;2023-04-03T00:42:24;6.40;64.70
68922;DHT22;55959;51.244;5.724;2023-04-03T00:47:23;6.30;64.80
68922;DHT22;55959;51.244;5.724;2023-04-03T00:49:50;6.30;64.80
68922;DHT22;55959;51.244;5.724;2023-04-03T00:52:20;6.30;64.90
68922;DHT22;55959;51.244;5.724;2023-04-03T00:54:49;6.30;65.00
68922;DHT22;55959;51.244;5.724;2023-04-03T00:57:16;6.20;64.90
68922;DHT22;55959;51.244;5.724;2023-04-03T00:59:46;6.20;65.10
68922;DHT22;55959;51.244;5.724;2023-04-03T01:02:14;6.20;65.10
68922;DHT22;55959;51.244;5.724;2023-04-03T01:04:42;6.20;65.10
68922;DHT22;55959;51.244;5.724;2023-04-03T01:09:55;6.10;65.20
68922;DHT22;55959;51.244;5.724;2023-04-03T01:12:29;6.10;65.30
68922;DHT22;55959;51.244;5.724;2023-04-03T01:14:59;6.10;65.30
68922;DHT22;55959;51.244;5.724;2023-04-03T01:17:37;6.00;65.40
68922;DHT22;55959;51.244;5.724;2023-04-03T01:25:56;6.00;65.60
68922;DHT22;55959;51.244;5.724;2023-04-03T01:28:32;5.90;65.60
68922;DHT22;55959;51.244;5.724;2023-04-03T01:33:50;5.80;65.70
68922;DHT22;55959;51.244;5.724;2023-04-03T01:36:22;5.80;65.70
68922;DHT22;55959;51.244;5.724;2023-04-03T01:38:50;5.80;65.90
68922;DHT22;55959;51.244;5.724;2023-04-03T01:41:16;5.80;65.90
68922;DHT22;55959;51.244;5.724;2023-04-03T01:43:42;5.80;66.00
68922;DHT22;55959;51.244;5.724;2023-04-03T01:46:08;5.80;66.10
68922;DHT22;55959;51.244;5.724;2023-04-03T01:48:34;5.70;66.10
68922;DHT22;55959;51.244;5.724;2023-04-03T01:51:00;5.70;66.10
68922;DHT22;55959;51.244;5.724;2023-04-03T01:53:26;5.70;66.10
68922;DHT22;55959;51.244;5.724;2023-04-03T01:55:52;5.70;66.20
68922;DHT22;55959;51.244;5.724;2023-04-03T01:58:17;5.70;66.30
68922;DHT22;55959;51.244;5.724;2023-04-03T02:00:44;5.60;66.30
68922;DHT22;55959;51.244;5.724;2023-04-03T02:03:11;5.60;66.40
68922;DHT22;55959;51.244;5.724;2023-04-03T02:05:37;5.60;66.50
68922;DHT22;55959;51.244;5.724;2023-04-03T02:08:03;5.60;66.50
68922;DHT22;55959;51.244;5.724;2023-04-03T02:10:29;5.60;66.60
68922;DHT22;55959;51.244;5.724;2023-04-03T02:12:54;5.50;66.50
68922;DHT22;55959;51.244;5.724;2023-04-03T02:15:20;5.50;66.60
68922;DHT22;55959;51.244;5.724;2023-04-03T02:17:46;5.50;66.60
68922;DHT22;55959;51.244;5.724;2023-04-03T02:20:12;5.50;66.60
68922;DHT22;55959;51.244;5.724;2023-04-03T02:22:38;5.50;66.70
68922;DHT22;55959;51.244;5.724;2023-04-03T02:25:04;5.40;66.70
68922;DHT22;55959;51.244;5.724;2023-04-03T02:27:30;5.40;66.80
68922;DHT22;55959;51.244;5.724;2023-04-03T02:29:57;5.40;66.90
68922;DHT22;55959;51.244;5.724;2023-04-03T02:32:22;5.40;66.90
68922;DHT22;55959;51.244;5.724;2023-04-03T02:34:48;5.40;67.90
68922;DHT22;55959;51.244;5.724;2023-04-03T02:37:14;5.30;66.90
68922;DHT22;55959;51.244;5.724;2023-04-03T02:39:40;5.30;67.00
68922;DHT22;55959;51.244;5.724;2023-04-03T02:42:06;5.30;67.10
68922;DHT22;55959;51.244;5.724;2023-04-03T02:44:32;5.20;67.10
68922;DHT22;55959;51.244;5.724;2023-04-03T02:46:58;5.20;67.20
68922;DHT22;55959;51.244;5.724;2023-04-03T02:49:24;5.20;67.30
68922;DHT22;55959;51.244;5.724;2023-04-03T02:51:49;5.20;67.30
68922;DHT22;55959;51.244;5.724;2023-04-03T02:54:16;5.20;67.30
68922;DHT22;55959;51.244;5.724;2023-04-03T02:56:42;5.20;67.40
68922;DHT22;55959;51.244;5.724;2023-04-03T02:59:08;5.20;67.40
68922;DHT22;55959;51.244;5.724;2023-04-03T03:01:33;5.20;67.50
68922;DHT22;55959;51.244;5.724;2023-04-03T03:04:00;5.10;67.50
68922;DHT22;55959;51.244;5.724;2023-04-03T03:06:26;5.10;67.60
68922;DHT22;55959;51.244;5.724;2023-04-03T03:08:52;5.10;67.70
68922;DHT22;55959;51.244;5.724;2023-04-03T03:11:18;5.10;67.80
68922;DHT22;55959;51.244;5.724;2023-04-03T03:13:45;5.10;67.80
68922;DHT22;55959;51.244;5.724;2023-04-03T03:16:10;5.10;67.80
68922;DHT22;55959;51.244;5.724;2023-04-03T03:18:36;5.00;67.80
68922;DHT22;55959;51.244;5.724;2023-04-03T03:21:03;5.00;67.90
68922;DHT22;55959;51.244;5.724;2023-04-03T03:23:30;5.00;68.20
68922;DHT22;55959;51.244;5.724;2023-04-03T03:26:00;5.00;68.10
68922;DHT22;55959;51.244;5.724;2023-04-03T03:28:31;5.00;68.20
68922;DHT22;55959;51.244;5.724;2023-04-03T03:30:58;5.00;68.30
68922;DHT22;55959;51.244;5.724;2023-04-03T03:33:25;5.00;69.40
68922;DHT22;55959;51.244;5.724;2023-04-03T03:35:53;5.00;68.70
68922;DHT22;55959;51.244;5.724;2023-04-03T03:38:20;5.00;68.70
68922;DHT22;55959;51.244;5.724;2023-04-03T03:40:49;5.00;68.70
68922;DHT22;55959;51.244;5.724;2023-04-03T03:43:16;5.00;68.80
68922;DHT22;55959;51.244;5.724;2023-04-03T03:45:43;4.90;68.70
68922;DHT22;55959;51.244;5.724;2023-04-03T03:48:09;4.90;69.70
68922;DHT22;55959;51.244;5.724;2023-04-03T03:50:35;4.90;68.70
68922;DHT22;55959;51.244;5.724;2023-04-03T03:53:01;5.00;68.90
68922;DHT22;55959;51.244;5.724;2023-04-03T03:55:27;4.90;68.90
68922;DHT22;55959;51.244;5.724;2023-04-03T03:57:53;4.90;69.00
68922;DHT22;55959;51.244;5.724;2023-04-03T04:00:19;4.90;69.10
68922;DHT22;55959;51.244;5.724;2023-04-03T04:02:44;4.90;69.30
68922;DHT22;55959;51.244;5.724;2023-04-03T04:05:11;4.90;69.30
68922;DHT22;55959;51.244;5.724;2023-04-03T04:07:37;4.90;69.30
68922;DHT22;55959;51.244;5.724;2023-04-03T04:10:03;4.90;69.30
68922;DHT22;55959;51.244;5.724;2023-04-03T04:12:29;4.90;69.40
68922;DHT22;55959;51.244;5.724;2023-04-03T04:14:55;4.90;69.50
68922;DHT22;55959;51.244;5.724;2023-04-03T04:17:21;4.90;69.50
68922;DHT22;55959;51.244;5.724;2023-04-03T04:19:47;4.90;69.50
68922;DHT22;55959;51.244;5.724;2023-04-03T04:22:13;4.80;69.50
68922;DHT22;55959;51.244;5.724;2023-04-03T04:24:38;4.80;69.60
68922;DHT22;55959;51.244;5.724;2023-04-03T04:27:04;4.90;69.70
68922;DHT22;55959;51.244;5.724;2023-04-03T04:29:30;4.90;69.70
68922;DHT22;55959;51.244;5.724;2023-04-03T04:32:01;4.80;69.50
68922;DHT22;55959;51.244;5.724;2023-04-03T04:34:28;4.80;69.50
68922;DHT22;55959;51.244;5.724;2023-04-03T04:36:53;4.80;69.50
68922;DHT22;55959;51.244;5.724;2023-04-03T04:39:19;4.80;70.40
68922;DHT22;55959;51.244;5.724;2023-04-03T04:41:45;4.80;69.70
68922;DHT22;55959;51.244;5.724;2023-04-03T04:44:11;4.80;69.70
68922;DHT22;55959;51.244;5.724;2023-04-03T04:46:36;4.80;69.80
68922;DHT22;55959;51.244;5.724;2023-04-03T04:49:02;4.80;69.70
68922;DHT22;55959;51.244;5.724;2023-04-03T04:51:28;4.80;69.80
68922;DHT22;55959;51.244;5.724;2023-04-03T04:53:53;4.80;69.90
68922;DHT22;55959;51.244;5.724;2023-04-03T04:56:19;4.80;69.90
68922;DHT22;55959;51.244;5.724;2023-04-03T04:58:46;4.70;69.90
68922;DHT22;55959;51.244;5.724;2023-04-03T05:01:12;4.80;69.90
68922;DHT22;55959;51.244;5.724;2023-04-03T05:03:38;4.70;69.90
68922;DHT22;55959;51.244;5.724;2023-04-03T05:06:05;4.70;69.90
68922;DHT22;55959;51.244;5.724;2023-04-03T05:08:31;4.70;69.90
68922;DHT22;55959;51.244;5.724;2023-04-03T05:10:57;4.70;69.90
68922;DHT22;55959;51.244;5.724;2023-04-03T05:13:23;4.70;70.10
68922;DHT22;55959;51.244;5.724;2023-04-03T05:15:48;4.70;70.10
68922;DHT22;55959;51.244;5.724;2023-04-03T05:18:14;4.70;70.30
68922;DHT22;55959;51.244;5.724;2023-04-03T05:20:40;4.70;70.30
68922;DHT22;55959;51.244;5.724;2023-04-03T05:23:06;4.70;70.30
68922;DHT22;55959;51.244;5.724;2023-04-03T05:25:31;4.70;70.20
68922;DHT22;55959;51.244;5.724;2023-04-03T05:27:58;4.70;70.30
68922;DHT22;55959;51.244;5.724;2023-04-03T05:30:24;4.70;70.20
68922;DHT22;55959;51.244;5.724;2023-04-03T05:32:49;4.70;70.20
68922;DHT22;55959;51.244;5.724;2023-04-03T05:35:15;4.70;70.30
68922;DHT22;55959;51.244;5.724;2023-04-03T05:37:41;4.70;70.40
68922;DHT22;55959;51.244;5.724;2023-04-03T05:40:07;4.70;70.50
68922;DHT22;55959;51.244;5.724;2023-04-03T05:42:33;4.70;70.60
68922;DHT22;55959;51.244;5.724;2023-04-03T05:45:00;4.70;70.60
68922;DHT22;55959;51.244;5.724;2023-04-03T05:47:25;4.70;70.70
68922;DHT22;55959;51.244;5.724;2023-04-03T05:49:51;4.70;70.70
68922;DHT22;55959;51.244;5.724;2023-04-03T05:52:25;4.70;70.90
68922;DHT22;55959;51.244;5.724;2023-04-03T05:54:53;4.80;71.10
68922;DHT22;55959;51.244;5.724;2023-04-03T05:57:19;4.80;71.10
68922;DHT22;55959;51.244;5.724;2023-04-03T05:59:46;4.80;71.40
68922;DHT22;55959;51.244;5.724;2023-04-03T06:02:14;4.80;71.60
68922;DHT22;55959;51.244;5.724;2023-04-03T06:04:41;4.80;71.90
68922;DHT22;55959;51.244;5.724;2023-04-03T06:07:11;4.90;72.10
68922;DHT22;55959;51.244;5.724;2023-04-03T06:09:38;4.90;72.20
68922;DHT22;55959;51.244;5.724;2023-04-03T06:12:03;5.00;72.40
68922;DHT22;55959;51.244;5.724;2023-04-03T06:14:29;5.10;72.50
68922;DHT22;55959;51.244;5.724;2023-04-03T06:16:55;5.10;72.50
68922;DHT22;55959;51.244;5.724;2023-04-03T06:19:21;5.20;72.30
68922;DHT22;55959;51.244;5.724;2023-04-03T06:21:47;5.30;72.20
68922;DHT22;55959;51.244;5.724;2023-04-03T06:24:15;5.40;72.10
68922;DHT22;55959;51.244;5.724;2023-04-03T06:26:43;5.50;72.10
68922;DHT22;55959;51.244;5.724;2023-04-03T06:29:09;5.60;71.80
68922;DHT22;55959;51.244;5.724;2023-04-03T06:31:35;5.70;71.70
68922;DHT22;55959;51.244;5.724;2023-04-03T06:34:02;5.80;71.60
68922;DHT22;55959;51.244;5.724;2023-04-03T06:36:29;5.80;71.40
68922;DHT22;55959;51.244;5.724;2023-04-03T06:38:55;6.00;71.50
68922;DHT22;55959;51.244;5.724;2023-04-03T06:41:21;6.10;71.60
68922;DHT22;55959;51.244;5.724;2023-04-03T06:43:47;6.20;71.50
68922;DHT22;55959;51.244;5.724;2023-04-03T06:46:17;6.40;71.70
68922;DHT22;55959;51.244;5.724;2023-04-03T06:48:47;6.60;71.20
68922;DHT22;55959;51.244;5.724;2023-04-03T06:51:22;6.70;69.60
68922;DHT22;55959;51.244;5.724;2023-04-03T06:53:54;6.90;69.80
68922;DHT22;55959;51.244;5.724;2023-04-03T06:56:22;7.20;70.20
68922;DHT22;55959;51.244;5.724;2023-04-03T06:58:48;7.50;70.30
68922;DHT22;55959;51.244;5.724;2023-04-03T07:01:15;7.80;70.10
68922;DHT22;55959;51.244;5.724;2023-04-03T07:03:42;8.20;70.40
68922;DHT22;55959;51.244;5.724;2023-04-03T07:06:11;8.60;71.00
68922;DHT22;55959;51.244;5.724;2023-04-03T07:08:37;8.90;68.20
68922;DHT22;55959;51.244;5.724;2023-04-03T07:11:04;9.40;66.90
68922;DHT22;55959;51.244;5.724;2023-04-03T07:13:31;9.80;67.40
68922;DHT22;55959;51.244;5.724;2023-04-03T07:15:58;10.10;64.90
68922;DHT22;55959;51.244;5.724;2023-04-03T07:18:24;10.30;61.60
68922;DHT22;55959;51.244;5.724;2023-04-03T07:20:50;10.50;59.50
68922;DHT22;55959;51.244;5.724;2023-04-03T07:23:16;10.50;58.70
68922;DHT22;55959;51.244;5.724;2023-04-03T07:25:49;10.60;58.00
68922;DHT22;55959;51.244;5.724;2023-04-03T07:28:17;10.80;58.70
68922;DHT22;55959;51.244;5.724;2023-04-03T07:30:59;11.00;57.50
68922;DHT22;55959;51.244;5.724;2023-04-03T07:33:26;11.10;56.40
68922;DHT22;55959;51.244;5.724;2023-04-03T07:35:52;11.20;55.90
68922;DHT22;55959;51.244;5.724;2023-04-03T07:38:19;11.20;56.10
68922;DHT22;55959;51.244;5.724;2023-04-03T07:40:46;11.10;55.50
68922;DHT22;55959;51.244;5.724;2023-04-03T07:43:14;11.00;54.20
68922;DHT22;55959;51.244;5.724;2023-04-03T07:45:40;10.80;54.80
68922;DHT22;55959;51.244;5.724;2023-04-03T07:48:06;10.70;55.10
68922;DHT22;55959;51.244;5.724;2023-04-03T07:50:33;10.50;54.70
68922;DHT22;55959;51.244;5.724;2023-04-03T07:52:59;10.30;54.80
68922;DHT22;55959;51.244;5.724;2023-04-03T07:55:25;10.20;55.30
68922;DHT22;55959;51.244;5.724;2023-04-03T07:57:51;10.00;55.70
68922;DHT22;55959;51.244;5.724;2023-04-03T08:00:17;9.90;56.00
68922;DHT22;55959;51.244;5.724;2023-04-03T08:02:44;9.80;56.60
68922;DHT22;55959;51.244;5.724;2023-04-03T08:05:10;9.70;56.60
68922;DHT22;55959;51.244;5.724;2023-04-03T08:07:37;9.50;56.60
68922;DHT22;55959;51.244;5.724;2023-04-03T08:10:04;9.50;56.40
68922;DHT22;55959;51.244;5.724;2023-04-03T08:12:30;9.40;56.70
68922;DHT22;55959;51.244;5.724;2023-04-03T08:14:57;9.30;57.40
68922;DHT22;55959;51.244;5.724;2023-04-03T08:17:25;9.20;57.60
68922;DHT22;55959;51.244;5.724;2023-04-03T08:19:51;9.20;57.90
68922;DHT22;55959;51.244;5.724;2023-04-03T08:22:17;9.20;58.10
68922;DHT22;55959;51.244;5.724;2023-04-03T08:24:42;9.20;57.80
68922;DHT22;55959;51.244;5.724;2023-04-03T08:27:09;9.20;58.00
68922;DHT22;55959;51.244;5.724;2023-04-03T08:29:35;9.20;58.20
68922;DHT22;55959;51.244;5.724;2023-04-03T08:32:03;9.10;58.00
68922;DHT22;55959;51.244;5.724;2023-04-03T08:34:30;9.20;58.40
68922;DHT22;55959;51.244;5.724;2023-04-03T08:36:56;9.20;56.60
68922;DHT22;55959;51.244;5.724;2023-04-03T08:39:22;9.20;56.60
68922;DHT22;55959;51.244;5.724;2023-04-03T08:41:47;9.20;56.60
68922;DHT22;55959;51.244;5.724;2023-04-03T08:49:45;9.20;54.80
68922;DHT22;55959;51.244;5.724;2023-04-03T08:52:20;9.20;55.40
68922;DHT22;55959;51.244;5.724;2023-04-03T08:55:40;9.20;55.80
68922;DHT22;55959;51.244;5.724;2023-04-03T08:58:27;9.20;56.30
68922;DHT22;55959;51.244;5.724;2023-04-03T09:01:05;9.20;55.90
68922;DHT22;55959;51.244;5.724;2023-04-03T09:03:36;9.30;55.60
68922;DHT22;55959;51.244;5.724;2023-04-03T09:06:39;9.30;55.90
68922;DHT22;55959;51.244;5.724;2023-04-03T09:09:12;9.30;56.10
68922;DHT22;55959;51.244;5.724;2023-04-03T09:12:05;9.40;55.10
68922;DHT22;55959;51.244;5.724;2023-04-03T09:17:53;9.40;53.60
68922;DHT22;55959;51.244;5.724;2023-04-03T09:23:50;9.50;53.50
68922;DHT22;55959;51.244;5.724;2023-04-03T09:26:31;9.50;51.80
68922;DHT22;55959;51.244;5.724;2023-04-03T09:29:04;9.50;52.20
68922;DHT22;55959;51.244;5.724;2023-04-03T09:31:38;9.60;50.50
68922;DHT22;55959;51.244;5.724;2023-04-03T09:34:10;9.60;50.10
68922;DHT22;55959;51.244;5.724;2023-04-03T09:36:58;9.60;50.30
68922;DHT22;55959;51.244;5.724;2023-04-03T09:39:31;9.70;50.30
68922;DHT22;55959;51.244;5.724;2023-04-03T09:42:24;9.70;49.80
68922;DHT22;55959;51.244;5.724;2023-04-03T09:44:58;9.80;49.20
68922;DHT22;55959;51.244;5.724;2023-04-03T09:47:35;9.80;49.10
68922;DHT22;55959;51.244;5.724;2023-04-03T09:52:48;9.90;46.40
68922;DHT22;55959;51.244;5.724;2023-04-03T09:55:42;9.90;46.50
68922;DHT22;55959;51.244;5.724;2023-04-03T09:58:31;9.90;48.60
68922;DHT22;55959;51.244;5.724;2023-04-03T10:01:01;10.00;48.10
68922;DHT22;55959;51.244;5.724;2023-04-03T10:03:34;10.00;47.80
68922;DHT22;55959;51.244;5.724;2023-04-03T10:06:05;10.10;47.40
68922;DHT22;55959;51.244;5.724;2023-04-03T10:08:59;10.00;47.60
68922;DHT22;55959;51.244;5.724;2023-04-03T10:11:29;10.10;48.00
68922;DHT22;55959;51.244;5.724;2023-04-03T10:14:00;10.10;47.20
68922;DHT22;55959;51.244;5.724;2023-04-03T10:16:48;10.20;47.60
68922;DHT22;55959;51.244;5.724;2023-04-03T10:19:42;10.20;47.30
68922;DHT22;55959;51.244;5.724;2023-04-03T10:25:20;10.30;45.80
68922;DHT22;55959;51.244;5.724;2023-04-03T10:28:03;10.30;46.10
68922;DHT22;55959;51.244;5.724;2023-04-03T10:30:50;10.30;45.60
68922;DHT22;55959;51.244;5.724;2023-04-03T10:33:30;10.40;45.50
68922;DHT22;55959;51.244;5.724;2023-04-03T10:36:38;10.40;45.60
68922;DHT22;55959;51.244;5.724;2023-04-03T10:53:52;10.60;44.80
68922;DHT22;55959;51.244;5.724;2023-04-03T10:59:40;10.70;44.90
68922;DHT22;55959;51.244;5.724;2023-04-03T11:02:28;10.80;42.90
68922;DHT22;55959;51.244;5.724;2023-04-03T11:05:02;10.80;41.20
68922;DHT22;55959;51.244;5.724;2023-04-03T11:07:38;10.80;42.10
68922;DHT22;55959;51.244;5.724;2023-04-03T11:10:21;10.90;41.30
68922;DHT22;55959;51.244;5.724;2023-04-03T11:13:14;10.90;40.90
68922;DHT22;55959;51.244;5.724;2023-04-03T11:15:43;11.00;40.20
68922;DHT22;55959;51.244;5.724;2023-04-03T11:18:20;11.00;39.00
68922;DHT22;55959;51.244;5.724;2023-04-03T11:20:58;11.00;39.10
68922;DHT22;55959;51.244;5.724;2023-04-03T11:23:30;11.00;39.00
68922;DHT22;55959;51.244;5.724;2023-04-03T11:26:11;11.10;38.70
68922;DHT22;55959;51.244;5.724;2023-04-03T11:28:38;11.10;39.10
68922;DHT22;55959;51.244;5.724;2023-04-03T11:36:48;11.20;39.60
68922;DHT22;55959;51.244;5.724;2023-04-03T11:39:37;11.30;38.30
68922;DHT22;55959;51.244;5.724;2023-04-03T11:55:58;11.30;38.40
68922;DHT22;55959;51.244;5.724;2023-04-03T11:58:33;11.40;39.30
68922;DHT22;55959;51.244;5.724;2023-04-03T12:01:08;11.40;40.20
68922;DHT22;55959;51.244;5.724;2023-04-03T12:19:34;11.70;38.00
68922;DHT22;55959;51.244;5.724;2023-04-03T12:24:30;11.80;38.50
68922;DHT22;55959;51.244;5.724;2023-04-03T12:41:37;12.10;38.80
68922;DHT22;55959;51.244;5.724;2023-04-03T12:44:32;12.10;38.90
68922;DHT22;55959;51.244;5.724;2023-04-03T12:47:23;12.10;36.90
68922;DHT22;55959;51.244;5.724;2023-04-03T12:49:53;12.20;37.10
68922;DHT22;55959;51.244;5.724;2023-04-03T12:54:59;12.30;38.50
68922;DHT22;55959;51.244;5.724;2023-04-03T12:57:29;12.30;37.60
68922;DHT22;55959;51.244;5.724;2023-04-03T12:59:56;12.30;37.60
68922;DHT22;55959;51.244;5.724;2023-04-03T13:02:31;12.40;38.60
68922;DHT22;55959;51.244;5.724;2023-04-03T13:05:06;12.50;36.90
68922;DHT22;55959;51.244;5.724;2023-04-03T13:07:36;12.40;35.80
68922;DHT22;55959;51.244;5.724;2023-04-03T13:12:34;12.40;37.90
68922;DHT22;55959;51.244;5.724;2023-04-03T13:15:12;12.50;37.50
68922;DHT22;55959;51.244;5.724;2023-04-03T13:17:42;12.50;37.60
68922;DHT22;55959;51.244;5.724;2023-04-03T13:20:22;12.50;37.20
68922;DHT22;55959;51.244;5.724;2023-04-03T13:25:31;12.60;36.70
68922;DHT22;55959;51.244;5.724;2023-04-03T13:28:00;12.60;36.90
68922;DHT22;55959;51.244;5.724;2023-04-03T13:30:29;12.60;38.10
68922;DHT22;55959;51.244;5.724;2023-04-03T13:32:57;12.70;37.40
68922;DHT22;55959;51.244;5.724;2023-04-03T13:41:27;12.80;37.30
68922;DHT22;55959;51.244;5.724;2023-04-03T13:43:55;12.90;37.00
68922;DHT22;55959;51.244;5.724;2023-04-03T13:46:28;12.90;37.40
68922;DHT22;55959;51.244;5.724;2023-04-03T13:48:56;12.90;37.10
68922;DHT22;55959;51.244;5.724;2023-04-03T13:51:26;13.00;37.30
68922;DHT22;55959;51.244;5.724;2023-04-03T13:53:58;13.10;37.30
68922;DHT22;55959;51.244;5.724;2023-04-03T14:01:51;13.20;38.40
68922;DHT22;55959;51.244;5.724;2023-04-03T14:04:27;13.20;39.10
68922;DHT22;55959;51.244;5.724;2023-04-03T14:06:58;13.30;38.30
68922;DHT22;55959;51.244;5.724;2023-04-03T14:09:26;13.30;37.60
68922;DHT22;55959;51.244;5.724;2023-04-03T14:11:56;13.30;37.80
68922;DHT22;55959;51.244;5.724;2023-04-03T14:14:34;13.30;37.60
68922;DHT22;55959;51.244;5.724;2023-04-03T14:17:03;13.30;38.00
68922;DHT22;55959;51.244;5.724;2023-04-03T14:19:33;13.30;37.90
68922;DHT22;55959;51.244;5.724;2023-04-03T14:22:11;13.30;37.50
68922;DHT22;55959;51.244;5.724;2023-04-03T14:24:40;13.40;37.60
68922;DHT22;55959;51.244;5.724;2023-04-03T14:27:22;13.40;37.70
68922;DHT22;55959;51.244;5.724;2023-04-03T14:29:51;13.40;38.60
68922;DHT22;55959;51.244;5.724;2023-04-03T14:32:19;13.40;37.10
68922;DHT22;55959;51.244;5.724;2023-04-03T14:34:46;13.40;37.40
68922;DHT22;55959;51.244;5.724;2023-04-03T14:37:15;13.40;37.70
68922;DHT22;55959;51.244;5.724;2023-04-03T14:39:44;13.40;38.00
68922;DHT22;55959;51.244;5.724;2023-04-03T14:42:16;13.40;37.70
68922;DHT22;55959;51.244;5.724;2023-04-03T14:44:45;13.40;37.60
68922;DHT22;55959;51.244;5.724;2023-04-03T14:47:16;13.40;37.00
68922;DHT22;55959;51.244;5.724;2023-04-03T14:49:44;13.50;37.50
68922;DHT22;55959;51.244;5.724;2023-04-03T14:52:21;13.50;36.70
68922;DHT22;55959;51.244;5.724;2023-04-03T14:54:50;13.50;36.70
68922;DHT22;55959;51.244;5.724;2023-04-03T14:57:17;13.50;37.10
68922;DHT22;55959;51.244;5.724;2023-04-03T14:59:45;13.50;36.20
68922;DHT22;55959;51.244;5.724;2023-04-03T15:04:57;13.50;36.40
68922;DHT22;55959;51.244;5.724;2023-04-03T15:07:25;13.50;35.50
68922;DHT22;55959;51.244;5.724;2023-04-03T15:09:52;13.40;36.40
68922;DHT22;55959;51.244;5.724;2023-04-03T15:12:18;13.50;36.80
68922;DHT22;55959;51.244;5.724;2023-04-03T15:14:44;13.50;36.70
68922;DHT22;55959;51.244;5.724;2023-04-03T15:17:17;13.50;36.70
68922;DHT22;55959;51.244;5.724;2023-04-03T15:19:46;13.50;35.50
68922;DHT22;55959;51.244;5.724;2023-04-03T15:22:17;13.50;36.60
68922;DHT22;55959;51.244;5.724;2023-04-03T15:24:45;13.50;35.80
68922;DHT22;55959;51.244;5.724;2023-04-03T15:27:12;13.40;36.10
68922;DHT22;55959;51.244;5.724;2023-04-03T15:29:39;13.40;36.60
68922;DHT22;55959;51.244;5.724;2023-04-03T15:32:06;13.50;36.60
68922;DHT22;55959;51.244;5.724;2023-04-03T15:34:32;13.40;36.20
68922;DHT22;55959;51.244;5.724;2023-04-03T15:36:58;13.50;36.30
68922;DHT22;55959;51.244;5.724;2023-04-03T15:39:25;13.50;36.50
68922;DHT22;55959;51.244;5.724;2023-04-03T15:41:51;13.50;35.90
68922;DHT22;55959;51.244;5.724;2023-04-03T15:44:17;13.40;35.90
68922;DHT22;55959;51.244;5.724;2023-04-03T15:46:45;13.40;35.40
68922;DHT22;55959;51.244;5.724;2023-04-03T15:49:11;13.40;35.70
68922;DHT22;55959;51.244;5.724;2023-04-03T15:51:37;13.30;36.50
68922;DHT22;55959;51.244;5.724;2023-04-03T15:54:03;13.30;36.60
68922;DHT22;55959;51.244;5.724;2023-04-03T15:56:29;13.40;37.00
68922;DHT22;55959;51.244;5.724;2023-04-03T15:58:54;13.40;36.40
68922;DHT22;55959;51.244;5.724;2023-04-03T16:01:20;13.40;36.00
68922;DHT22;55959;51.244;5.724;2023-04-03T16:03:46;13.40;36.60
68922;DHT22;55959;51.244;5.724;2023-04-03T16:06:17;13.40;36.10
68922;DHT22;55959;51.244;5.724;2023-04-03T16:08:44;13.40;36.60
68922;DHT22;55959;51.244;5.724;2023-04-03T16:11:11;13.30;37.60
68922;DHT22;55959;51.244;5.724;2023-04-03T16:13:37;13.40;36.70
68922;DHT22;55959;51.244;5.724;2023-04-03T16:16:04;13.30;36.60
68922;DHT22;55959;51.244;5.724;2023-04-03T16:18:31;13.30;36.70
68922;DHT22;55959;51.244;5.724;2023-04-03T16:20:57;13.40;36.70
68922;DHT22;55959;51.244;5.724;2023-04-03T16:23:23;13.40;36.40
68922;DHT22;55959;51.244;5.724;2023-04-03T16:25:49;13.30;36.80
68922;DHT22;55959;51.244;5.724;2023-04-03T16:28:17;13.40;37.10
68922;DHT22;55959;51.244;5.724;2023-04-03T16:30:44;13.30;36.20
68922;DHT22;55959;51.244;5.724;2023-04-03T16:33:13;13.30;36.30
68922;DHT22;55959;51.244;5.724;2023-04-03T16:35:39;13.30;36.10
68922;DHT22;55959;51.244;5.724;2023-04-03T16:38:08;13.30;36.50
68922;DHT22;55959;51.244;5.724;2023-04-03T16:40:34;13.30;36.30
68922;DHT22;55959;51.244;5.724;2023-04-03T16:43:01;13.20;37.00
68922;DHT22;55959;51.244;5.724;2023-04-03T16:45:27;13.30;37.20
68922;DHT22;55959;51.244;5.724;2023-04-03T16:47:53;13.30;37.60
68922;DHT22;55959;51.244;5.724;2023-04-03T16:50:19;13.30;37.40
68922;DHT22;55959;51.244;5.724;2023-04-03T16:52:46;13.30;37.40
68922;DHT22;55959;51.244;5.724;2023-04-03T16:55:12;13.20;37.80
68922;DHT22;55959;51.244;5.724;2023-04-03T16:57:38;13.20;38.10
68922;DHT22;55959;51.244;5.724;2023-04-03T17:00:04;13.20;38.20
68922;DHT22;55959;51.244;5.724;2023-04-03T17:02:31;13.10;38.20
68922;DHT22;55959;51.244;5.724;2023-04-03T17:04:56;13.10;38.20
68922;DHT22;55959;51.244;5.724;2023-04-03T17:07:24;13.10;38.70
68922;DHT22;55959;51.244;5.724;2023-04-03T17:09:51;13.00;38.50
68922;DHT22;55959;51.244;5.724;2023-04-03T17:12:19;13.00;38.50
68922;DHT22;55959;51.244;5.724;2023-04-03T17:14:45;13.00;38.80
68922;DHT22;55959;51.244;5.724;2023-04-03T17:17:13;12.90;39.10
68922;DHT22;55959;51.244;5.724;2023-04-03T17:19:40;12.90;39.50
68922;DHT22;55959;51.244;5.724;2023-04-03T17:22:07;12.90;39.50
68922;DHT22;55959;51.244;5.724;2023-04-03T17:24:34;12.90;39.40
68922;DHT22;55959;51.244;5.724;2023-04-03T17:27:00;12.90;39.40
68922;DHT22;55959;51.244;5.724;2023-04-03T17:29:25;12.80;39.30
68922;DHT22;55959;51.244;5.724;2023-04-03T17:31:51;12.80;39.00
68922;DHT22;55959;51.244;5.724;2023-04-03T17:34:17;12.70;39.00
68922;DHT22;55959;51.244;5.724;2023-04-03T17:36:42;12.70;39.00
68922;DHT22;55959;51.244;5.724;2023-04-03T17:39:08;12.60;39.00
68922;DHT22;55959;51.244;5.724;2023-04-03T17:41:34;12.50;39.40
68922;DHT22;55959;51.244;5.724;2023-04-03T17:44:00;12.40;39.50
68922;DHT22;55959;51.244;5.724;2023-04-03T17:46:27;12.40;39.70
68922;DHT22;55959;51.244;5.724;2023-04-03T17:48:54;12.30;39.90
68922;DHT22;55959;51.244;5.724;2023-04-03T17:51:22;12.30;39.80
68922;DHT22;55959;51.244;5.724;2023-04-03T17:53:48;12.20;39.80
68922;DHT22;55959;51.244;5.724;2023-04-03T17:56:23;12.10;40.00